sensor_id;sensor_type;location;lat;lon;timestamp;temperature;humidity
19728;DHT22;10015;52.530;13.390;2023-11-19T00:01:31;5.00;99.90
19728;DHT22;10015;52.530;13.390;2023-11-19T00:04:01;4.90;99.90
19728;DHT22;10015;52.530;13.390;2023-11-19T00:06:27;4.90;99.90
19728;DHT22;10015;52.530;13.390;2023-11-19T00:09:24;4.90;99.90
19728;DHT22;10015;52.530;13.390;2023-11-19T00:12:03;5.00;99.90
19728;DHT22;10015;52.530;13.390;2023-11-19T00:14:40;4.90;99.90
19728;DHT22;10015;52.530;13.390;2023-11-19T00:17:06;5.00;99.90
19728;DHT22;10015;52.530;13.390;2023-11-19T00:19:47;4.90;99.90
19728;DHT22;10015;52.530;13.390;2023-11-19T00:22:22;4.90;99.90
19728;DHT22;10015;52.530;13.390;2023-11-19T00:24:55;4.90;99.90
19728;DHT22;10015;52.530;13.390;2023-11-19T00:27:30;4.90;99.90
19728;DHT22;10015;52.530;13.390;2023-11-19T00:30:05;4.90;99.90
19728;DHT22;10015;52.530;13.390;2023-11-19T00:32:33;4.90;99.90
19728;DHT22;10015;52.530;13.390;2023-11-19T00:35:02;4.90;99.90
19728;DHT22;10015;52.530;13.390;2023-11-19T00:37:34;4.90;99.90
19728;DHT22;10015;52.530;13.390;2023-11-19T00:40:10;5.00;99.90
19728;DHT22;10015;52.530;13.390;2023-11-19T00:42:39;4.90;99.90
19728;DHT22;10015;52.530;13.390;2023-11-19T00:45:08;5.00;99.90
19728;DHT22;10015;52.530;13.390;2023-11-19T00:47:35;5.00;99.90
19728;DHT22;10015;52.530;13.390;2023-11-19T00:50:05;5.00;99.90
19728;DHT22;10015;52.530;13.390;2023-11-19T00:52:34;5.10;99.90
19728;DHT22;10015;52.530;13.390;2023-11-19T00:55:04;5.10;99.90
19728;DHT22;10015;52.530;13.390;2023-11-19T00:57:33;5.10;99.90
19728;DHT22;10015;52.530;13.390;2023-11-19T01:00:00;5.20;99.90
19728;DHT22;10015;52.530;13.390;2023-11-19T01:02:26;5.20;99.90
19728;DHT22;10015;52.530;13.390;2023-11-19T01:04:51;5.20;99.90
19728;DHT22;10015;52.530;13.390;2023-11-19T01:07:18;5.20;99.90
19728;DHT22;10015;52.530;13.390;2023-11-19T01:09:44;5.20;99.90
19728;DHT22;10015;52.530;13.390;2023-11-19T01:12:10;5.20;99.90
19728;DHT22;10015;52.530;13.390;2023-11-19T01:14:36;5.20;99.90
19728;DHT22;10015;52.530;13.390;2023-11-19T01:17:05;5.20;99.90
19728;DHT22;10015;52.530;13.390;2023-11-19T01:19:31;5.10;99.90
19728;DHT22;10015;52.530;13.390;2023-11-19T01:21:58;5.00;99.90
19728;DHT22;10015;52.530;13.390;2023-11-19T01:24:24;5.00;99.90
19728;DHT22;10015;52.530;13.390;2023-11-19T01:26:50;5.10;99.90
19728;DHT22;10015;52.530;13.390;2023-11-19T01:29:16;5.10;99.90
19728;DHT22;10015;52.530;13.390;2023-11-19T01:31:43;5.10;99.90
19728;DHT22;10015;52.530;13.390;2023-11-19T01:34:10;5.20;99.90
19728;DHT22;10015;52.530;13.390;2023-11-19T01:36:37;5.30;99.90
19728;DHT22;10015;52.530;13.390;2023-11-19T01:39:03;5.20;99.90
19728;DHT22;10015;52.530;13.390;2023-11-19T01:41:36;5.20;99.90
19728;DHT22;10015;52.530;13.390;2023-11-19T01:44:02;5.20;99.90
19728;DHT22;10015;52.530;13.390;2023-11-19T01:46:29;5.20;99.90
19728;DHT22;10015;52.530;13.390;2023-11-19T01:48:59;5.20;99.90
19728;DHT22;10015;52.530;13.390;2023-11-19T01:51:29;5.20;99.90
19728;DHT22;10015;52.530;13.390;2023-11-19T01:53:55;5.20;99.90
19728;DHT22;10015;52.530;13.390;2023-11-19T01:56:23;5.20;99.90
19728;DHT22;10015;52.530;13.390;2023-11-19T01:58:49;5.20;99.90
19728;DHT22;10015;52.530;13.390;2023-11-19T02:01:16;5.20;99.90
19728;DHT22;10015;52.530;13.390;2023-11-19T02:03:43;5.20;99.90
19728;DHT22;10015;52.530;13.390;2023-11-19T02:06:09;5.10;99.90
19728;DHT22;10015;52.530;13.390;2023-11-19T02:08:36;5.20;99.90
19728;DHT22;10015;52.530;13.390;2023-11-19T02:11:04;5.20;99.90
19728;DHT22;10015;52.530;13.390;2023-11-19T02:13:32;5.20;99.90
19728;DHT22;10015;52.530;13.390;2023-11-19T02:15:58;5.10;99.90
19728;DHT22;10015;52.530;13.390;2023-11-19T02:18:26;5.10;99.90
19728;DHT22;10015;52.530;13.390;2023-11-19T02:20:57;5.20;99.90
19728;DHT22;10015;52.530;13.390;2023-11-19T02:23:26;5.20;99.90
19728;DHT22;10015;52.530;13.390;2023-11-19T02:26:09;5.20;99.90
19728;DHT22;10015;52.530;13.390;2023-11-19T02:28:36;5.20;99.90
19728;DHT22;10015;52.530;13.390;2023-11-19T02:31:03;5.20;99.90
19728;DHT22;10015;52.530;13.390;2023-11-19T02:33:31;5.20;99.90
19728;DHT22;10015;52.530;13.390;2023-11-19T02:35:57;5.30;99.90
19728;DHT22;10015;52.530;13.390;2023-11-19T02:38:23;5.40;99.90
19728;DHT22;10015;52.530;13.390;2023-11-19T02:40:49;5.40;99.90
19728;DHT22;10015;52.530;13.390;2023-11-19T02:43:15;5.30;99.90
19728;DHT22;10015;52.530;13.390;2023-11-19T02:45:41;5.30;99.90
19728;DHT22;10015;52.530;13.390;2023-11-19T02:48:11;5.30;99.90
19728;DHT22;10015;52.530;13.390;2023-11-19T02:50:37;5.30;99.90
19728;DHT22;10015;52.530;13.390;2023-11-19T02:53:03;5.30;99.90
19728;DHT22;10015;52.530;13.390;2023-11-19T02:55:29;5.30;99.90
19728;DHT22;10015;52.530;13.390;2023-11-19T02:58:00;5.30;99.90
19728;DHT22;10015;52.530;13.390;2023-11-19T03:00:25;5.30;99.90
19728;DHT22;10015;52.530;13.390;2023-11-19T03:03:01;5.30;99.90
19728;DHT22;10015;52.530;13.390;2023-11-19T03:05:48;5.40;99.90
19728;DHT22;10015;52.530;13.390;2023-11-19T03:08:17;5.30;99.90
19728;DHT22;10015;52.530;13.390;2023-11-19T03:10:43;5.30;99.90
19728;DHT22;10015;52.530;13.390;2023-11-19T03:13:11;5.30;99.90
19728;DHT22;10015;52.530;13.390;2023-11-19T03:15:40;5.40;99.90
19728;DHT22;10015;52.530;13.390;2023-11-19T03:18:06;5.40;99.90
19728;DHT22;10015;52.530;13.390;2023-11-19T03:20:33;5.40;99.90
19728;DHT22;10015;52.530;13.390;2023-11-19T03:22:59;5.50;99.90
19728;DHT22;10015;52.530;13.390;2023-11-19T03:25:28;5.40;99.90
19728;DHT22;10015;52.530;13.390;2023-11-19T03:28:01;5.50;99.90
19728;DHT22;10015;52.530;13.390;2023-11-19T03:30:28;5.50;99.90
19728;DHT22;10015;52.530;13.390;2023-11-19T03:32:55;5.50;99.90
19728;DHT22;10015;52.530;13.390;2023-11-19T03:35:22;5.50;99.90
19728;DHT22;10015;52.530;13.390;2023-11-19T03:37:48;5.50;99.90
19728;DHT22;10015;52.530;13.390;2023-11-19T03:40:14;5.50;99.90
19728;DHT22;10015;52.530;13.390;2023-11-19T03:42:40;5.60;99.90
19728;DHT22;10015;52.530;13.390;2023-11-19T03:45:09;5.50;99.90
19728;DHT22;10015;52.530;13.390;2023-11-19T03:47:35;5.40;99.90
19728;DHT22;10015;52.530;13.390;2023-11-19T03:50:02;5.30;99.90
19728;DHT22;10015;52.530;13.390;2023-11-19T03:52:28;5.20;99.90
19728;DHT22;10015;52.530;13.390;2023-11-19T03:54:55;5.20;99.90
19728;DHT22;10015;52.530;13.390;2023-11-19T03:57:22;5.10;99.90
19728;DHT22;10015;52.530;13.390;2023-11-19T03:59:49;5.20;99.90
19728;DHT22;10015;52.530;13.390;2023-11-19T04:02:16;5.10;99.90
19728;DHT22;10015;52.530;13.390;2023-11-19T04:04:42;5.00;99.90
19728;DHT22;10015;52.530;13.390;2023-11-19T04:07:08;4.90;99.90
19728;DHT22;10015;52.530;13.390;2023-11-19T04:09:35;4.90;99.90
19728;DHT22;10015;52.530;13.390;2023-11-19T04:12:04;5.00;99.90
19728;DHT22;10015;52.530;13.390;2023-11-19T04:14:30;5.00;99.90
19728;DHT22;10015;52.530;13.390;2023-11-19T04:16:56;5.00;99.90
19728;DHT22;10015;52.530;13.390;2023-11-19T04:19:22;5.10;99.90
19728;DHT22;10015;52.530;13.390;2023-11-19T04:21:48;5.10;99.90
19728;DHT22;10015;52.530;13.390;2023-11-19T04:24:18;5.10;99.90
19728;DHT22;10015;52.530;13.390;2023-11-19T04:26:45;5.00;99.90
19728;DHT22;10015;52.530;13.390;2023-11-19T04:29:12;5.00;99.90
19728;DHT22;10015;52.530;13.390;2023-11-19T04:31:39;5.00;99.90
19728;DHT22;10015;52.530;13.390;2023-11-19T04:34:05;5.10;99.90
19728;DHT22;10015;52.530;13.390;2023-11-19T04:36:34;5.00;99.90
19728;DHT22;10015;52.530;13.390;2023-11-19T04:39:01;5.10;99.90
19728;DHT22;10015;52.530;13.390;2023-11-19T04:41:27;5.00;99.90
19728;DHT22;10015;52.530;13.390;2023-11-19T04:43:56;5.00;99.90
19728;DHT22;10015;52.530;13.390;2023-11-19T04:46:22;5.00;99.90
19728;DHT22;10015;52.530;13.390;2023-11-19T04:48:49;5.00;99.90
19728;DHT22;10015;52.530;13.390;2023-11-19T04:51:16;5.10;99.90
19728;DHT22;10015;52.530;13.390;2023-11-19T04:53:42;5.10;99.90
19728;DHT22;10015;52.530;13.390;2023-11-19T04:56:09;5.10;99.90
19728;DHT22;10015;52.530;13.390;2023-11-19T04:58:35;5.10;99.90
19728;DHT22;10015;52.530;13.390;2023-11-19T05:01:03;5.10;99.90
19728;DHT22;10015;52.530;13.390;2023-11-19T05:03:31;5.10;99.90
19728;DHT22;10015;52.530;13.390;2023-11-19T05:06:00;5.10;99.90
19728;DHT22;10015;52.530;13.390;2023-11-19T05:08:28;5.00;99.90
19728;DHT22;10015;52.530;13.390;2023-11-19T05:10:54;5.00;99.90
19728;DHT22;10015;52.530;13.390;2023-11-19T05:13:20;5.00;99.90
19728;DHT22;10015;52.530;13.390;2023-11-19T05:15:46;4.90;99.90
19728;DHT22;10015;52.530;13.390;2023-11-19T05:18:12;5.00;99.90
19728;DHT22;10015;52.530;13.390;2023-11-19T05:20:38;5.00;99.90
19728;DHT22;10015;52.530;13.390;2023-11-19T05:23:04;4.90;99.90
19728;DHT22;10015;52.530;13.390;2023-11-19T05:25:29;5.00;99.90
19728;DHT22;10015;52.530;13.390;2023-11-19T05:27:55;5.00;99.90
19728;DHT22;10015;52.530;13.390;2023-11-19T05:30:21;4.90;99.90
19728;DHT22;10015;52.530;13.390;2023-11-19T05:32:48;5.00;99.90
19728;DHT22;10015;52.530;13.390;2023-11-19T05:35:14;4.90;99.90
19728;DHT22;10015;52.530;13.390;2023-11-19T05:37:40;5.00;99.90
19728;DHT22;10015;52.530;13.390;2023-11-19T05:40:07;5.00;99.90
19728;DHT22;10015;52.530;13.390;2023-11-19T05:42:43;5.10;99.90
19728;DHT22;10015;52.530;13.390;2023-11-19T05:45:12;5.10;99.90
19728;DHT22;10015;52.530;13.390;2023-11-19T05:47:38;5.00;99.90
19728;DHT22;10015;52.530;13.390;2023-11-19T05:50:04;4.90;99.90
19728;DHT22;10015;52.530;13.390;2023-11-19T05:52:32;4.90;99.90
19728;DHT22;10015;52.530;13.390;2023-11-19T05:55:00;5.00;99.90
19728;DHT22;10015;52.530;13.390;2023-11-19T05:57:29;5.00;99.90
19728;DHT22;10015;52.530;13.390;2023-11-19T05:59:55;4.90;99.90
19728;DHT22;10015;52.530;13.390;2023-11-19T06:02:21;4.90;99.90
19728;DHT22;10015;52.530;13.390;2023-11-19T06:04:47;4.90;99.90
19728;DHT22;10015;52.530;13.390;2023-11-19T06:07:14;5.00;99.90
19728;DHT22;10015;52.530;13.390;2023-11-19T06:09:41;5.00;99.90
19728;DHT22;10015;52.530;13.390;2023-11-19T06:12:07;5.10;99.90
19728;DHT22;10015;52.530;13.390;2023-11-19T06:14:40;5.00;99.90
19728;DHT22;10015;52.530;13.390;2023-11-19T06:17:06;5.00;99.90
19728;DHT22;10015;52.530;13.390;2023-11-19T06:19:31;5.00;99.90
19728;DHT22;10015;52.530;13.390;2023-11-19T06:21:58;5.10;99.90
19728;DHT22;10015;52.530;13.390;2023-11-19T06:24:24;5.00;99.90
19728;DHT22;10015;52.530;13.390;2023-11-19T06:26:50;5.00;99.90
19728;DHT22;10015;52.530;13.390;2023-11-19T06:29:16;5.00;99.90
19728;DHT22;10015;52.530;13.390;2023-11-19T06:31:45;5.00;99.90
19728;DHT22;10015;52.530;13.390;2023-11-19T06:34:14;5.20;99.90
19728;DHT22;10015;52.530;13.390;2023-11-19T06:36:40;5.20;99.90
19728;DHT22;10015;52.530;13.390;2023-11-19T06:39:06;5.20;99.90
19728;DHT22;10015;52.530;13.390;2023-11-19T06:41:32;5.20;99.90
19728;DHT22;10015;52.530;13.390;2023-11-19T06:43:58;5.20;99.90
19728;DHT22;10015;52.530;13.390;2023-11-19T06:46:25;5.20;99.90
19728;DHT22;10015;52.530;13.390;2023-11-19T06:48:51;5.20;99.90
19728;DHT22;10015;52.530;13.390;2023-11-19T06:51:17;5.20;99.90
19728;DHT22;10015;52.530;13.390;2023-11-19T06:53:43;5.20;99.90
19728;DHT22;10015;52.530;13.390;2023-11-19T06:56:22;5.30;99.90
19728;DHT22;10015;52.530;13.390;2023-11-19T06:58:49;5.30;99.90
19728;DHT22;10015;52.530;13.390;2023-11-19T07:01:16;5.30;99.90
19728;DHT22;10015;52.530;13.390;2023-11-19T07:03:42;5.30;99.90
19728;DHT22;10015;52.530;13.390;2023-11-19T07:06:32;5.30;99.90
19728;DHT22;10015;52.530;13.390;2023-11-19T07:08:58;5.30;99.90
19728;DHT22;10015;52.530;13.390;2023-11-19T07:11:24;5.30;99.90
19728;DHT22;10015;52.530;13.390;2023-11-19T07:13:51;5.40;99.90
19728;DHT22;10015;52.530;13.390;2023-11-19T07:16:17;5.40;99.90
19728;DHT22;10015;52.530;13.390;2023-11-19T07:18:44;5.40;99.90
19728;DHT22;10015;52.530;13.390;2023-11-19T07:21:10;5.40;99.90
19728;DHT22;10015;52.530;13.390;2023-11-19T07:23:36;5.50;99.90
19728;DHT22;10015;52.530;13.390;2023-11-19T07:26:06;5.50;99.90
19728;DHT22;10015;52.530;13.390;2023-11-19T07:28:34;5.50;99.90
19728;DHT22;10015;52.530;13.390;2023-11-19T07:31:01;5.50;99.90
19728;DHT22;10015;52.530;13.390;2023-11-19T07:33:27;5.50;99.90
19728;DHT22;10015;52.530;13.390;2023-11-19T07:35:53;5.50;99.90
19728;DHT22;10015;52.530;13.390;2023-11-19T07:38:20;5.50;99.90
19728;DHT22;10015;52.530;13.390;2023-11-19T07:40:49;5.50;99.90
19728;DHT22;10015;52.530;13.390;2023-11-19T07:43:15;5.50;99.90
19728;DHT22;10015;52.530;13.390;2023-11-19T07:45:42;5.50;99.90
19728;DHT22;10015;52.530;13.390;2023-11-19T07:48:11;5.60;99.90
19728;DHT22;10015;52.530;13.390;2023-11-19T07:50:39;5.60;99.90
19728;DHT22;10015;52.530;13.390;2023-11-19T07:53:08;5.60;99.90
19728;DHT22;10015;52.530;13.390;2023-11-19T07:55:35;5.70;99.90
19728;DHT22;10015;52.530;13.390;2023-11-19T07:58:00;5.70;99.90
19728;DHT22;10015;52.530;13.390;2023-11-19T08:00:26;5.70;99.90
19728;DHT22;10015;52.530;13.390;2023-11-19T08:02:53;5.80;99.90
19728;DHT22;10015;52.530;13.390;2023-11-19T08:05:19;6.10;99.90
19728;DHT22;10015;52.530;13.390;2023-11-19T08:07:45;6.10;99.90
19728;DHT22;10015;52.530;13.390;2023-11-19T08:10:11;6.00;99.90
19728;DHT22;10015;52.530;13.390;2023-11-19T08:12:37;6.00;99.90
19728;DHT22;10015;52.530;13.390;2023-11-19T08:15:04;6.10;99.90
19728;DHT22;10015;52.530;13.390;2023-11-19T08:17:33;6.10;99.90
19728;DHT22;10015;52.530;13.390;2023-11-19T08:19:59;6.20;99.90
19728;DHT22;10015;52.530;13.390;2023-11-19T08:22:26;6.40;99.90
19728;DHT22;10015;52.530;13.390;2023-11-19T08:24:52;6.50;99.90
19728;DHT22;10015;52.530;13.390;2023-11-19T08:27:18;6.50;99.90
19728;DHT22;10015;52.530;13.390;2023-11-19T08:29:49;6.50;99.90
19728;DHT22;10015;52.530;13.390;2023-11-19T08:32:19;6.70;99.90
19728;DHT22;10015;52.530;13.390;2023-11-19T08:34:48;6.70;99.90
19728;DHT22;10015;52.530;13.390;2023-11-19T08:37:14;6.90;99.90
19728;DHT22;10015;52.530;13.390;2023-11-19T08:39:41;6.70;99.90
19728;DHT22;10015;52.530;13.390;2023-11-19T08:42:08;6.60;99.90
19728;DHT22;10015;52.530;13.390;2023-11-19T08:44:34;6.60;99.90
19728;DHT22;10015;52.530;13.390;2023-11-19T08:47:00;6.60;99.90
19728;DHT22;10015;52.530;13.390;2023-11-19T08:49:34;6.80;99.90
19728;DHT22;10015;52.530;13.390;2023-11-19T08:52:00;7.00;99.90
19728;DHT22;10015;52.530;13.390;2023-11-19T08:54:26;7.10;99.90
19728;DHT22;10015;52.530;13.390;2023-11-19T08:56:52;7.10;99.90
19728;DHT22;10015;52.530;13.390;2023-11-19T08:59:18;7.00;99.90
19728;DHT22;10015;52.530;13.390;2023-11-19T09:01:47;7.00;99.90
19728;DHT22;10015;52.530;13.390;2023-11-19T09:04:13;7.10;99.90
19728;DHT22;10015;52.530;13.390;2023-11-19T09:06:40;7.30;99.90
19728;DHT22;10015;52.530;13.390;2023-11-19T09:09:06;7.20;99.90
19728;DHT22;10015;52.530;13.390;2023-11-19T09:11:32;7.10;99.90
19728;DHT22;10015;52.530;13.390;2023-11-19T09:13:58;7.20;99.90
19728;DHT22;10015;52.530;13.390;2023-11-19T09:16:29;7.30;99.90
19728;DHT22;10015;52.530;13.390;2023-11-19T09:18:55;7.50;99.90
19728;DHT22;10015;52.530;13.390;2023-11-19T09:21:29;7.40;99.90
19728;DHT22;10015;52.530;13.390;2023-11-19T09:23:58;7.60;99.90
19728;DHT22;10015;52.530;13.390;2023-11-19T09:26:28;7.50;99.90
19728;DHT22;10015;52.530;13.390;2023-11-19T09:28:57;7.50;99.90
19728;DHT22;10015;52.530;13.390;2023-11-19T09:31:26;7.60;99.90
19728;DHT22;10015;52.530;13.390;2023-11-19T09:33:52;7.70;99.90
19728;DHT22;10015;52.530;13.390;2023-11-19T09:36:19;7.70;99.90
19728;DHT22;10015;52.530;13.390;2023-11-19T09:38:50;7.80;99.90
19728;DHT22;10015;52.530;13.390;2023-11-19T09:41:23;8.00;99.90
19728;DHT22;10015;52.530;13.390;2023-11-19T09:44:23;8.00;99.90
19728;DHT22;10015;52.530;13.390;2023-11-19T09:51:14;8.10;99.90
19728;DHT22;10015;52.530;13.390;2023-11-19T09:54:50;8.30;99.90
19728;DHT22;10015;52.530;13.390;2023-11-19T09:57:22;8.60;99.90
19728;DHT22;10015;52.530;13.390;2023-11-19T09:59:54;8.70;99.90
19728;DHT22;10015;52.530;13.390;2023-11-19T10:02:24;8.80;99.90
19728;DHT22;10015;52.530;13.390;2023-11-19T10:04:51;8.90;99.90
19728;DHT22;10015;52.530;13.390;2023-11-19T10:07:19;8.90;99.90
19728;DHT22;10015;52.530;13.390;2023-11-19T10:09:49;9.00;99.90
19728;DHT22;10015;52.530;13.390;2023-11-19T10:12:15;9.00;99.90
19728;DHT22;10015;52.530;13.390;2023-11-19T10:14:43;9.10;99.90
19728;DHT22;10015;52.530;13.390;2023-11-19T10:17:15;9.10;99.90
19728;DHT22;10015;52.530;13.390;2023-11-19T10:20:12;9.00;99.90
19728;DHT22;10015;52.530;13.390;2023-11-19T10:22:41;9.00;99.90
19728;DHT22;10015;52.530;13.390;2023-11-19T10:25:25;9.20;99.90
19728;DHT22;10015;52.530;13.390;2023-11-19T10:27:56;9.20;99.90
19728;DHT22;10015;52.530;13.390;2023-11-19T10:30:24;9.20;99.90
19728;DHT22;10015;52.530;13.390;2023-11-19T10:35:50;9.30;99.90
19728;DHT22;10015;52.530;13.390;2023-11-19T10:38:20;9.40;99.90
19728;DHT22;10015;52.530;13.390;2023-11-19T10:41:11;9.50;99.90
19728;DHT22;10015;52.530;13.390;2023-11-19T10:44:07;9.50;99.90
19728;DHT22;10015;52.530;13.390;2023-11-19T10:47:19;9.60;99.90
19728;DHT22;10015;52.530;13.390;2023-11-19T10:50:03;9.70;99.90
19728;DHT22;10015;52.530;13.390;2023-11-19T10:52:57;9.80;99.90
19728;DHT22;10015;52.530;13.390;2023-11-19T10:58:21;9.90;99.90
19728;DHT22;10015;52.530;13.390;2023-11-19T11:01:09;10.00;99.90
19728;DHT22;10015;52.530;13.390;2023-11-19T11:03:48;10.10;99.90
19728;DHT22;10015;52.530;13.390;2023-11-19T11:06:18;10.20;99.90
19728;DHT22;10015;52.530;13.390;2023-11-19T11:09:15;10.30;99.90
19728;DHT22;10015;52.530;13.390;2023-11-19T11:12:06;10.20;99.90
19728;DHT22;10015;52.530;13.390;2023-11-19T11:14:44;10.20;99.90
19728;DHT22;10015;52.530;13.390;2023-11-19T11:37:34;10.50;99.90
19728;DHT22;10015;52.530;13.390;2023-11-19T11:40:03;10.60;99.90
19728;DHT22;10015;52.530;13.390;2023-11-19T11:49:27;11.00;99.90
19728;DHT22;10015;52.530;13.390;2023-11-19T11:52:32;11.10;99.90
19728;DHT22;10015;52.530;13.390;2023-11-19T12:07:14;11.10;99.90
19728;DHT22;10015;52.530;13.390;2023-11-19T12:10:14;11.10;99.90
19728;DHT22;10015;52.530;13.390;2023-11-19T12:13:42;11.10;99.90
19728;DHT22;10015;52.530;13.390;2023-11-19T12:16:22;11.00;99.90
19728;DHT22;10015;52.530;13.390;2023-11-19T12:19:11;11.00;99.90
19728;DHT22;10015;52.530;13.390;2023-11-19T12:22:45;11.00;99.90
19728;DHT22;10015;52.530;13.390;2023-11-19T12:25:50;11.00;99.90
19728;DHT22;10015;52.530;13.390;2023-11-19T12:33:14;11.00;99.90
19728;DHT22;10015;52.530;13.390;2023-11-19T12:36:25;11.10;99.90
19728;DHT22;10015;52.530;13.390;2023-11-19T12:39:08;11.10;99.90
19728;DHT22;10015;52.530;13.390;2023-11-19T12:53:46;11.00;99.90
19728;DHT22;10015;52.530;13.390;2023-11-19T12:57:05;10.90;99.90
19728;DHT22;10015;52.530;13.390;2023-11-19T12:59:31;11.00;99.90
19728;DHT22;10015;52.530;13.390;2023-11-19T13:01:58;11.00;99.90
19728;DHT22;10015;52.530;13.390;2023-11-19T13:04:28;11.10;99.90
19728;DHT22;10015;52.530;13.390;2023-11-19T13:07:00;11.10;99.90
19728;DHT22;10015;52.530;13.390;2023-11-19T13:09:28;11.00;99.90
19728;DHT22;10015;52.530;13.390;2023-11-19T13:11:58;11.10;99.90
19728;DHT22;10015;52.530;13.390;2023-11-19T13:14:36;11.00;99.90
19728;DHT22;10015;52.530;13.390;2023-11-19T13:17:16;11.10;99.90
19728;DHT22;10015;52.530;13.390;2023-11-19T13:22:17;11.20;99.90
19728;DHT22;10015;52.530;13.390;2023-11-19T13:24:44;11.10;99.90
19728;DHT22;10015;52.530;13.390;2023-11-19T13:27:10;11.00;99.90
19728;DHT22;10015;52.530;13.390;2023-11-19T13:29:39;11.00;99.90
19728;DHT22;10015;52.530;13.390;2023-11-19T13:32:06;11.00;99.90
19728;DHT22;10015;52.530;13.390;2023-11-19T13:34:33;11.00;99.90
19728;DHT22;10015;52.530;13.390;2023-11-19T13:37:00;11.00;99.90
19728;DHT22;10015;52.530;13.390;2023-11-19T13:39:29;11.00;99.90
19728;DHT22;10015;52.530;13.390;2023-11-19T13:42:55;11.00;99.90
19728;DHT22;10015;52.530;13.390;2023-11-19T13:45:22;11.00;99.90
19728;DHT22;10015;52.530;13.390;2023-11-19T13:47:48;11.00;99.90
19728;DHT22;10015;52.530;13.390;2023-11-19T13:50:16;11.00;99.90
19728;DHT22;10015;52.530;13.390;2023-11-19T13:52:46;11.10;99.90
19728;DHT22;10015;52.530;13.390;2023-11-19T13:55:14;11.00;99.90
19728;DHT22;10015;52.530;13.390;2023-11-19T13:57:42;11.00;99.90
19728;DHT22;10015;52.530;13.390;2023-11-19T14:00:10;11.00;99.90
19728;DHT22;10015;52.530;13.390;2023-11-19T14:15:28;10.90;99.90
19728;DHT22;10015;52.530;13.390;2023-11-19T14:18:52;10.90;99.90
19728;DHT22;10015;52.530;13.390;2023-11-19T14:21:18;10.90;99.90
19728;DHT22;10015;52.530;13.390;2023-11-19T14:23:47;10.90;99.90
19728;DHT22;10015;52.530;13.390;2023-11-19T14:26:13;11.00;99.90
19728;DHT22;10015;52.530;13.390;2023-11-19T14:28:39;10.90;99.90
19728;DHT22;10015;52.530;13.390;2023-11-19T14:31:06;10.90;99.90
19728;DHT22;10015;52.530;13.390;2023-11-19T14:33:32;10.80;99.90
19728;DHT22;10015;52.530;13.390;2023-11-19T14:36:01;10.80;99.90
19728;DHT22;10015;52.530;13.390;2023-11-19T14:38:28;10.90;99.90
19728;DHT22;10015;52.530;13.390;2023-11-19T14:40:54;10.80;99.90
19728;DHT22;10015;52.530;13.390;2023-11-19T14:43:21;10.80;99.90
19728;DHT22;10015;52.530;13.390;2023-11-19T14:45:48;10.90;99.90
19728;DHT22;10015;52.530;13.390;2023-11-19T14:48:14;10.90;99.90
19728;DHT22;10015;52.530;13.390;2023-11-19T14:50:40;10.90;99.90
19728;DHT22;10015;52.530;13.390;2023-11-19T14:53:07;10.90;99.90
19728;DHT22;10015;52.530;13.390;2023-11-19T14:55:34;10.90;99.90
19728;DHT22;10015;52.530;13.390;2023-11-19T14:58:04;10.90;99.90
19728;DHT22;10015;52.530;13.390;2023-11-19T15:00:30;10.90;99.90
19728;DHT22;10015;52.530;13.390;2023-11-19T15:02:57;10.90;99.90
19728;DHT22;10015;52.530;13.390;2023-11-19T15:05:24;10.90;99.90
19728;DHT22;10015;52.530;13.390;2023-11-19T15:07:50;10.90;99.90
19728;DHT22;10015;52.530;13.390;2023-11-19T15:10:17;10.90;99.90
19728;DHT22;10015;52.530;13.390;2023-11-19T15:12:43;10.80;99.90
19728;DHT22;10015;52.530;13.390;2023-11-19T15:15:09;10.80;99.90
19728;DHT22;10015;52.530;13.390;2023-11-19T15:17:36;10.80;99.90
19728;DHT22;10015;52.530;13.390;2023-11-19T15:20:05;10.80;99.90
19728;DHT22;10015;52.530;13.390;2023-11-19T15:22:34;10.80;99.90
19728;DHT22;10015;52.530;13.390;2023-11-19T15:25:00;10.80;99.90
19728;DHT22;10015;52.530;13.390;2023-11-19T15:27:26;10.80;99.90
19728;DHT22;10015;52.530;13.390;2023-11-19T15:29:52;10.80;99.90
19728;DHT22;10015;52.530;13.390;2023-11-19T15:32:18;10.80;99.90
19728;DHT22;10015;52.530;13.390;2023-11-19T15:34:44;10.80;99.90
19728;DHT22;10015;52.530;13.390;2023-11-19T15:37:10;10.80;99.90
19728;DHT22;10015;52.530;13.390;2023-11-19T15:39:39;10.80;99.90
19728;DHT22;10015;52.530;13.390;2023-11-19T15:42:05;10.80;99.90
19728;DHT22;10015;52.530;13.390;2023-11-19T15:44:34;10.80;99.90
19728;DHT22;10015;52.530;13.390;2023-11-19T15:47:00;10.80;99.90
19728;DHT22;10015;52.530;13.390;2023-11-19T15:49:26;10.80;99.90
19728;DHT22;10015;52.530;13.390;2023-11-19T15:51:53;10.90;99.90
19728;DHT22;10015;52.530;13.390;2023-11-19T15:54:20;10.90;99.90
19728;DHT22;10015;52.530;13.390;2023-11-19T15:56:46;10.80;99.90
19728;DHT22;10015;52.530;13.390;2023-11-19T15:59:13;10.90;99.90
19728;DHT22;10015;52.530;13.390;2023-11-19T16:01:42;10.90;99.90
19728;DHT22;10015;52.530;13.390;2023-11-19T16:04:09;10.90;99.90
19728;DHT22;10015;52.530;13.390;2023-11-19T16:06:35;10.90;99.90
19728;DHT22;10015;52.530;13.390;2023-11-19T16:09:02;10.90;99.90
19728;DHT22;10015;52.530;13.390;2023-11-19T16:11:30;10.80;99.90
19728;DHT22;10015;52.530;13.390;2023-11-19T16:13:57;10.80;99.90
19728;DHT22;10015;52.530;13.390;2023-11-19T16:16:24;10.80;99.90
19728;DHT22;10015;52.530;13.390;2023-11-19T16:18:51;10.90;99.90
19728;DHT22;10015;52.530;13.390;2023-11-19T16:21:18;10.90;99.90
19728;DHT22;10015;52.530;13.390;2023-11-19T16:23:46;10.80;99.90
19728;DHT22;10015;52.530;13.390;2023-11-19T16:26:13;10.80;99.90
19728;DHT22;10015;52.530;13.390;2023-11-19T16:28:40;10.70;99.90
19728;DHT22;10015;52.530;13.390;2023-11-19T16:31:10;10.70;99.90
19728;DHT22;10015;52.530;13.390;2023-11-19T16:33:37;10.90;99.90
19728;DHT22;10015;52.530;13.390;2023-11-19T16:36:05;10.90;99.90
19728;DHT22;10015;52.530;13.390;2023-11-19T16:38:32;10.80;99.90
19728;DHT22;10015;52.530;13.390;2023-11-19T16:40:59;10.80;99.90
19728;DHT22;10015;52.530;13.390;2023-11-19T16:43:26;10.90;99.90
19728;DHT22;10015;52.530;13.390;2023-11-19T16:45:55;10.80;99.90
19728;DHT22;10015;52.530;13.390;2023-11-19T16:48:22;10.80;99.90
19728;DHT22;10015;52.530;13.390;2023-11-19T16:50:50;10.80;99.90
19728;DHT22;10015;52.530;13.390;2023-11-19T16:53:52;10.80;99.90
19728;DHT22;10015;52.530;13.390;2023-11-19T16:57:47;10.80;99.90
19728;DHT22;10015;52.530;13.390;2023-11-19T17:01:16;10.80;99.90
19728;DHT22;10015;52.530;13.390;2023-11-19T17:04:00;10.90;99.90
19728;DHT22;10015;52.530;13.390;2023-11-19T17:06:26;10.90;99.90
19728;DHT22;10015;52.530;13.390;2023-11-19T17:08:52;10.80;99.90